createdAt,value
2017-08-16T00:00:39.496Z,0.00
2017-08-16T00:01:39.491Z,0.00
2017-08-16T00:02:39.488Z,0.00
2017-08-16T00:03:39.482Z,0.00
2017-08-16T00:04:39.478Z,0.00
2017-08-16T00:05:39.477Z,0.00
2017-08-16T00:06:39.472Z,0.00
2017-08-16T00:07:39.471Z,0.00
2017-08-16T00:08:39.469Z,0.00
2017-08-16T00:09:39.466Z,0.00
2017-08-16T00:10:39.463Z,0.00
2017-08-16T00:11:39.457Z,0.00
2017-08-16T00:12:39.456Z,0.00
2017-08-16T00:13:39.449Z,0.00
2017-08-16T00:14:39.447Z,0.00
2017-08-16T00:15:39.442Z,0.00
2017-08-16T00:16:39.433Z,0.00
2017-08-16T00:17:39.431Z,0.00
2017-08-16T00:18:39.431Z,0.00
2017-08-16T00:19:39.424Z,0.00
2017-08-16T00:20:39.424Z,0.00
2017-08-16T00:21:39.422Z,0.00
2017-08-16T00:22:39.417Z,0.00
2017-08-16T00:23:39.411Z,0.00
2017-08-16T00:24:39.402Z,0.00
2017-08-16T00:25:39.400Z,0.00
2017-08-16T00:26:39.396Z,0.00
2017-08-16T00:27:39.393Z,0.00
2017-08-16T00:28:39.387Z,0.00
2017-08-16T00:29:39.384Z,0.00
2017-08-16T00:30:39.379Z,0.00
2017-08-16T00:31:39.378Z,0.00
2017-08-16T00:32:39.377Z,0.00
2017-08-16T00:33:39.375Z,0.00
2017-08-16T00:34:39.370Z,0.00
2017-08-16T00:35:39.364Z,0.00
2017-08-16T00:36:39.359Z,0.00
2017-08-16T00:37:39.357Z,0.00
2017-08-16T00:38:39.351Z,0.00
2017-08-16T00:39:39.350Z,0.00
2017-08-16T00:40:39.341Z,0.00
2017-08-16T00:41:39.335Z,0.00
2017-08-16T00:42:39.333Z,0.00
2017-08-16T00:43:39.327Z,0.00
2017-08-16T00:44:39.324Z,0.00
2017-08-16T00:45:39.319Z,0.00
2017-08-16T00:46:39.317Z,0.00
2017-08-16T00:47:39.311Z,0.00
2017-08-16T00:48:39.311Z,0.00
2017-08-16T00:49:39.310Z,0.00
2017-08-16T00:50:39.302Z,0.00
2017-08-16T00:51:39.300Z,0.00
2017-08-16T00:52:39.296Z,0.00
2017-08-16T00:53:39.289Z,0.00
2017-08-16T00:54:39.287Z,0.00
2017-08-16T00:55:39.281Z,0.00
2017-08-16T00:56:39.272Z,0.00
2017-08-16T00:57:39.270Z,0.00
2017-08-16T00:58:39.264Z,0.00
2017-08-16T00:59:39.261Z,0.00
2017-08-16T01:00:39.254Z,0.00
2017-08-16T01:01:39.252Z,0.00
2017-08-16T01:02:39.245Z,0.00
2017-08-16T01:03:39.244Z,0.00
2017-08-16T01:04:39.242Z,0.00
2017-08-16T01:05:39.237Z,0.00
2017-08-16T01:06:39.236Z,0.00
2017-08-16T01:07:39.229Z,0.00
2017-08-16T01:08:39.223Z,0.00
2017-08-16T01:09:39.221Z,0.00
2017-08-16T01:10:39.216Z,0.00
2017-08-16T01:11:39.213Z,0.00
2017-08-16T01:12:39.204Z,0.00
2017-08-16T01:13:39.196Z,0.00
2017-08-16T01:14:39.195Z,0.00
2017-08-16T01:15:39.190Z,0.00
2017-08-16T01:16:39.186Z,0.00
2017-08-16T01:17:39.179Z,0.00
2017-08-16T01:18:39.179Z,0.00
2017-08-16T01:19:39.173Z,0.00
2017-08-16T01:20:39.171Z,0.00
2017-08-16T01:21:39.169Z,0.00
2017-08-16T01:22:39.163Z,0.00
2017-08-16T01:23:39.159Z,0.00
2017-08-16T01:24:39.151Z,0.00
2017-08-16T01:25:39.144Z,0.00
2017-08-16T01:26:39.142Z,0.00
2017-08-16T01:27:39.135Z,0.00
2017-08-16T01:28:39.135Z,0.00
2017-08-16T01:29:39.133Z,0.00
2017-08-16T01:30:39.126Z,0.00
2017-08-16T01:31:39.124Z,0.00
2017-08-16T01:32:39.117Z,0.00
2017-08-16T01:33:39.121Z,0.00
2017-08-16T01:34:39.108Z,0.00
2017-08-16T01:35:39.107Z,0.00
2017-08-16T01:36:39.098Z,0.00
2017-08-16T01:37:39.091Z,0.00
2017-08-16T01:38:39.090Z,0.00
2017-08-16T01:39:39.083Z,0.00
2017-08-16T01:40:39.078Z,0.00
2017-08-16T01:41:39.076Z,0.00
2017-08-16T01:42:39.069Z,0.00
2017-08-16T01:43:39.068Z,0.00
2017-08-16T01:44:39.067Z,0.00
2017-08-16T01:45:39.061Z,0.00
2017-08-16T01:46:39.059Z,0.00
2017-08-16T01:47:39.052Z,0.00
2017-08-16T01:48:39.048Z,0.00
2017-08-16T01:49:39.043Z,0.00
2017-08-16T01:50:39.042Z,0.00
2017-08-16T01:51:39.034Z,0.00
2017-08-16T01:52:39.030Z,0.00
2017-08-16T01:53:39.024Z,0.00
2017-08-16T01:54:39.018Z,0.00
2017-08-16T01:55:39.017Z,0.00
2017-08-16T01:56:39.012Z,0.00
2017-08-16T01:57:39.005Z,0.00
2017-08-16T01:58:39.003Z,0.00
2017-08-16T01:59:38.997Z,0.00
2017-08-16T02:00:38.996Z,0.00
2017-08-16T02:01:38.995Z,0.00
2017-08-16T02:02:38.989Z,0.00
2017-08-16T02:03:38.987Z,0.00
2017-08-16T02:04:38.979Z,0.00
2017-08-16T02:05:38.976Z,0.00
2017-08-16T02:06:38.971Z,0.00
2017-08-16T02:07:38.969Z,0.00
2017-08-16T02:08:38.960Z,0.00
2017-08-16T02:09:38.953Z,0.00
2017-08-16T02:10:38.951Z,0.00
2017-08-16T02:11:38.944Z,0.00
2017-08-16T02:12:38.940Z,0.00
2017-08-16T02:13:38.939Z,0.00
2017-08-16T02:14:38.932Z,0.00
2017-08-16T02:15:38.930Z,0.00
2017-08-16T02:16:38.928Z,0.00
2017-08-16T02:17:38.921Z,0.00
2017-08-16T02:18:38.920Z,0.00
2017-08-16T02:19:38.913Z,0.00
2017-08-16T02:20:38.910Z,0.00
2017-08-16T02:21:38.904Z,0.00
2017-08-16T02:22:38.902Z,0.00
2017-08-16T02:23:38.896Z,0.00
2017-08-16T02:24:38.886Z,0.00
2017-08-16T02:25:38.884Z,0.00
2017-08-16T02:26:38.878Z,0.00
2017-08-16T02:27:38.875Z,0.00
2017-08-16T02:28:38.868Z,0.00
2017-08-16T02:29:38.866Z,0.00
2017-08-16T02:30:38.860Z,0.00
2017-08-16T02:31:38.857Z,0.00
2017-08-16T02:32:38.856Z,0.00
2017-08-16T02:33:38.855Z,0.00
2017-08-16T02:34:38.848Z,0.00
2017-08-16T02:35:38.840Z,0.00
2017-08-16T02:36:38.836Z,0.00
2017-08-16T02:37:38.831Z,0.00
2017-08-16T02:38:38.827Z,0.00
2017-08-16T02:39:38.821Z,0.00
2017-08-16T02:40:38.812Z,0.00
2017-08-16T02:41:38.810Z,0.00
2017-08-16T02:42:38.803Z,0.00
2017-08-16T02:43:38.801Z,0.00
2017-08-16T02:44:38.794Z,0.00
2017-08-16T02:45:38.789Z,0.00
2017-08-16T02:46:38.786Z,0.00
2017-08-16T02:47:38.779Z,0.00
2017-08-16T02:48:38.776Z,0.00
2017-08-16T02:49:38.774Z,0.00
2017-08-16T02:50:38.768Z,0.00
2017-08-16T02:51:38.766Z,0.00
2017-08-16T02:52:38.757Z,0.00
2017-08-16T02:53:38.755Z,0.00
2017-08-16T02:54:38.749Z,0.00
2017-08-16T02:55:38.745Z,0.00
2017-08-16T02:56:38.737Z,0.00
2017-08-16T02:57:38.728Z,0.00
2017-08-16T02:58:38.726Z,0.00
2017-08-16T02:59:38.720Z,0.00
2017-08-16T03:00:38.717Z,0.00
2017-08-16T03:01:38.709Z,0.00
2017-08-16T03:02:38.704Z,0.00
2017-08-16T03:03:38.700Z,0.00
2017-08-16T03:04:38.699Z,0.00
2017-08-16T03:05:38.692Z,0.00
2017-08-16T03:06:38.689Z,0.00
2017-08-16T03:07:38.680Z,0.00
2017-08-16T03:08:38.677Z,0.00
2017-08-16T03:09:38.671Z,0.00
2017-08-16T03:10:38.667Z,0.00
2017-08-16T03:11:38.661Z,0.00
2017-08-16T03:12:38.651Z,0.00
2017-08-16T03:13:38.647Z,0.00
2017-08-16T03:14:38.641Z,0.00
2017-08-16T03:15:38.638Z,0.00
2017-08-16T03:16:38.631Z,0.00
2017-08-16T03:17:38.624Z,0.00
2017-08-16T03:18:38.621Z,0.00
2017-08-16T03:19:38.615Z,0.00
2017-08-16T03:20:38.612Z,0.00
2017-08-16T03:21:38.608Z,0.00
2017-08-16T03:22:38.602Z,0.00
2017-08-16T03:23:38.599Z,0.00
2017-08-16T03:24:38.592Z,0.00
2017-08-16T03:25:38.594Z,0.00
2017-08-16T03:26:38.580Z,0.00
2017-08-16T03:27:38.576Z,0.00
2017-08-16T03:28:38.567Z,0.00
2017-08-16T03:29:38.558Z,0.00
2017-08-16T03:30:38.557Z,0.00
2017-08-16T03:31:38.548Z,0.00
2017-08-16T03:32:38.547Z,0.00
2017-08-16T03:33:38.543Z,0.00
2017-08-16T03:34:38.536Z,0.00
2017-08-16T03:35:38.532Z,0.00
2017-08-16T03:36:38.521Z,0.00
2017-08-16T03:37:38.514Z,0.00
2017-08-16T03:38:38.512Z,0.00
2017-08-16T03:39:38.504Z,0.00
2017-08-16T03:40:38.500Z,0.00
2017-08-16T03:41:38.493Z,0.00
2017-08-16T03:42:38.490Z,0.00
2017-08-16T03:43:38.483Z,0.00
2017-08-16T03:44:38.481Z,0.00
2017-08-16T03:45:38.476Z,0.00
2017-08-16T03:46:38.471Z,0.00
2017-08-16T03:47:38.467Z,0.00
2017-08-16T03:48:38.460Z,0.00
2017-08-16T03:49:38.456Z,0.00
2017-08-16T03:50:38.451Z,0.00
2017-08-16T03:51:38.444Z,0.00
2017-08-16T03:52:38.432Z,0.00
2017-08-16T03:53:38.431Z,0.00
2017-08-16T03:54:38.423Z,0.00
2017-08-16T03:55:38.420Z,0.00
2017-08-16T03:56:38.413Z,0.00
2017-08-16T03:57:38.409Z,0.00
2017-08-16T03:58:38.405Z,0.00
2017-08-16T03:59:38.402Z,0.00
2017-08-16T04:00:38.398Z,0.00
2017-08-16T04:01:38.391Z,0.00
2017-08-16T04:02:38.388Z,0.00
2017-08-16T04:03:38.380Z,0.00
2017-08-16T04:04:38.375Z,0.00
2017-08-16T04:05:38.372Z,0.00
2017-08-16T04:06:38.365Z,0.00
2017-08-16T04:07:38.362Z,0.00
2017-08-16T04:08:38.352Z,0.00
2017-08-16T04:09:38.344Z,0.00
2017-08-16T04:10:38.342Z,0.00
2017-08-16T04:11:38.334Z,0.00
2017-08-16T04:12:38.331Z,0.00
2017-08-16T04:13:38.324Z,0.00
2017-08-16T04:14:38.322Z,0.00
2017-08-16T04:15:38.316Z,0.00
2017-08-16T04:16:38.313Z,0.00
2017-08-16T04:17:38.310Z,0.00
2017-08-16T04:18:38.303Z,0.00
2017-08-16T04:19:38.301Z,0.00
2017-08-16T04:20:38.295Z,0.00
2017-08-16T04:21:38.288Z,5.63
2017-08-16T04:22:38.287Z,5.63
2017-08-16T04:23:38.280Z,0.00
2017-08-16T04:24:38.268Z,0.00
2017-08-16T04:25:38.267Z,0.00
2017-08-16T04:26:38.259Z,5.63
2017-08-16T04:27:38.257Z,5.63
2017-08-16T04:28:38.249Z,5.63
2017-08-16T04:29:38.248Z,5.63
2017-08-16T04:30:38.241Z,5.63
2017-08-16T04:31:38.238Z,5.63
2017-08-16T04:32:38.235Z,5.63
2017-08-16T04:33:38.229Z,5.63
2017-08-16T04:34:38.226Z,5.63
2017-08-16T04:35:38.220Z,5.63
2017-08-16T04:36:38.209Z,5.63
2017-08-16T04:37:38.207Z,5.63
2017-08-16T04:38:38.200Z,11.25
2017-08-16T04:39:38.199Z,11.25
2017-08-16T04:40:38.197Z,11.25
2017-08-16T04:41:38.191Z,11.25
2017-08-16T04:42:38.186Z,11.25
2017-08-16T04:43:38.181Z,16.88
2017-08-16T04:44:38.178Z,16.88
2017-08-16T04:45:38.171Z,16.88
2017-08-16T04:46:38.168Z,16.88
2017-08-16T04:47:38.162Z,22.50
2017-08-16T04:48:38.151Z,28.13
2017-08-16T04:49:38.148Z,28.13
2017-08-16T04:50:38.143Z,28.13
2017-08-16T04:51:38.139Z,28.13
2017-08-16T04:52:38.134Z,22.50
2017-08-16T04:53:38.126Z,22.50
2017-08-16T04:54:38.126Z,28.13
2017-08-16T04:55:38.119Z,33.75
2017-08-16T04:56:38.117Z,33.75
2017-08-16T04:57:38.116Z,33.75
2017-08-16T04:58:38.108Z,33.75
2017-08-16T04:59:38.105Z,33.75
2017-08-16T05:00:38.099Z,39.38
2017-08-16T05:01:38.096Z,39.38
2017-08-16T05:02:38.088Z,45.00
2017-08-16T05:03:38.087Z,45.00
2017-08-16T05:04:38.076Z,50.63
2017-08-16T05:05:38.071Z,56.25
2017-08-16T05:06:38.068Z,56.25
2017-08-16T05:07:38.061Z,61.88
2017-08-16T05:08:38.057Z,67.50
2017-08-16T05:09:38.054Z,73.13
2017-08-16T05:10:38.047Z,84.38
2017-08-16T05:11:38.045Z,90.00
2017-08-16T05:12:38.045Z,90.00
2017-08-16T05:13:38.038Z,90.00
2017-08-16T05:14:38.035Z,95.63
2017-08-16T05:15:38.028Z,95.63
2017-08-16T05:16:38.025Z,90.00
2017-08-16T05:17:38.018Z,78.75
2017-08-16T05:18:38.016Z,73.13
2017-08-16T05:19:38.009Z,73.13
2017-08-16T05:20:38.011Z,78.75
2017-08-16T05:21:37.998Z,78.75
2017-08-16T05:22:37.991Z,78.75
2017-08-16T05:23:37.989Z,73.13
2017-08-16T05:24:37.984Z,67.50
2017-08-16T05:25:37.977Z,67.50
2017-08-16T05:26:37.976Z,73.13
2017-08-16T05:27:37.969Z,78.75
2017-08-16T05:28:37.968Z,84.38
2017-08-16T05:29:37.964Z,90.00
2017-08-16T05:30:37.958Z,90.00
2017-08-16T05:31:37.957Z,90.00
2017-08-16T05:32:37.949Z,90.00
2017-08-16T05:33:37.946Z,90.00
2017-08-16T05:34:37.941Z,95.63
2017-08-16T05:35:37.939Z,106.88
2017-08-16T05:36:37.928Z,112.50
2017-08-16T05:37:37.923Z,118.13
2017-08-16T05:38:37.922Z,123.75
2017-08-16T05:39:37.914Z,129.38
2017-08-16T05:40:37.913Z,140.63
2017-08-16T05:41:37.917Z,151.88
2017-08-16T05:42:37.906Z,168.75
2017-08-16T05:43:37.902Z,191.25
2017-08-16T05:44:37.894Z,202.50
2017-08-16T05:45:37.887Z,208.13
2017-08-16T05:46:37.885Z,202.50
2017-08-16T05:47:37.882Z,174.38
2017-08-16T05:48:37.877Z,157.50
2017-08-16T05:49:37.871Z,151.88
2017-08-16T05:50:37.868Z,151.88
2017-08-16T05:51:37.863Z,157.50
2017-08-16T05:52:37.862Z,168.75
2017-08-16T05:53:37.860Z,168.75
2017-08-16T05:54:37.854Z,168.75
2017-08-16T05:55:37.851Z,163.13
2017-08-16T05:56:37.847Z,157.50
2017-08-16T05:57:37.841Z,146.25
2017-08-16T05:58:37.839Z,140.63
2017-08-16T05:59:37.833Z,135.00
2017-08-16T06:00:37.824Z,129.38
2017-08-16T06:01:37.822Z,140.63
2017-08-16T06:02:37.817Z,151.88
2017-08-16T06:03:37.815Z,168.75
2017-08-16T06:04:37.807Z,185.63
2017-08-16T06:05:37.807Z,196.88
2017-08-16T06:06:37.800Z,208.13
2017-08-16T06:07:37.797Z,213.75
2017-08-16T06:08:37.798Z,219.38
2017-08-16T06:09:37.792Z,225.00
2017-08-16T06:10:37.789Z,225.00
2017-08-16T06:11:37.785Z,219.38
2017-08-16T06:12:37.780Z,219.38
2017-08-16T06:13:37.783Z,230.63
2017-08-16T06:14:37.772Z,253.13
2017-08-16T06:15:37.772Z,281.25
2017-08-16T06:16:37.761Z,292.50
2017-08-16T06:17:37.757Z,292.50
2017-08-16T06:18:37.756Z,275.63
2017-08-16T06:19:37.748Z,270.00
2017-08-16T06:20:37.747Z,264.38
2017-08-16T06:21:37.742Z,264.38
2017-08-16T06:22:37.740Z,275.63
2017-08-16T06:23:37.734Z,281.25
2017-08-16T06:24:37.735Z,292.50
2017-08-16T06:25:37.734Z,286.88
2017-08-16T06:26:37.729Z,281.25
2017-08-16T06:27:37.727Z,264.38
2017-08-16T06:28:37.722Z,253.13
2017-08-16T06:29:37.719Z,247.50
2017-08-16T06:30:37.717Z,247.50
2017-08-16T06:31:37.712Z,241.88
2017-08-16T06:32:38.054Z,247.50
2017-08-16T06:33:37.703Z,253.13
2017-08-16T06:34:37.697Z,253.13
2017-08-16T06:35:37.695Z,258.75
2017-08-16T06:36:37.691Z,258.75
2017-08-16T06:37:37.690Z,264.38
2017-08-16T06:38:37.683Z,275.63
2017-08-16T06:39:37.683Z,292.50
2017-08-16T06:40:37.683Z,309.38
2017-08-16T06:41:37.679Z,337.50
2017-08-16T06:42:37.678Z,360.00
2017-08-16T06:43:37.673Z,371.25
2017-08-16T06:44:37.671Z,376.88
2017-08-16T06:45:37.662Z,371.25
2017-08-16T06:46:37.661Z,393.75
2017-08-16T06:47:37.657Z,382.50
2017-08-16T06:48:37.656Z,410.63
2017-08-16T06:49:37.657Z,461.25
2017-08-16T06:50:37.657Z,517.50
2017-08-16T06:51:37.651Z,579.38
2017-08-16T06:52:37.644Z,624.38
2017-08-16T06:53:37.644Z,635.63
2017-08-16T06:54:37.640Z,596.25
2017-08-16T06:55:37.641Z,540.00
2017-08-16T06:56:37.633Z,511.88
2017-08-16T06:57:37.629Z,511.88
2017-08-16T06:58:37.628Z,556.88
2017-08-16T06:59:37.623Z,613.13
2017-08-16T07:00:37.623Z,686.25
2017-08-16T07:01:37.622Z,759.38
2017-08-16T07:02:37.644Z,832.50
2017-08-16T07:03:37.618Z,871.88
2017-08-16T07:04:37.618Z,888.75
2017-08-16T07:05:37.616Z,905.63
2017-08-16T07:06:37.617Z,911.25
2017-08-16T07:07:37.613Z,888.75
2017-08-16T07:08:37.613Z,866.25
2017-08-16T07:09:37.610Z,849.38
2017-08-16T07:10:37.611Z,871.88
2017-08-16T07:11:37.608Z,911.25
2017-08-16T07:12:37.601Z,990.00
2017-08-16T07:13:37.603Z,1248.75
2017-08-16T07:14:37.599Z,1192.50
2017-08-16T07:15:37.602Z,1299.38
2017-08-16T07:16:37.601Z,1805.63
2017-08-16T07:17:37.598Z,1968.75
2017-08-16T07:18:37.599Z,2013.75
2017-08-16T07:19:37.602Z,1968.75
2017-08-16T07:20:37.602Z,2025.00
2017-08-16T07:21:37.604Z,2036.25
2017-08-16T07:22:37.604Z,2036.25
2017-08-16T07:23:37.607Z,2058.75
2017-08-16T07:24:37.608Z,1991.25
2017-08-16T07:25:37.611Z,1951.88
2017-08-16T07:26:37.613Z,1839.38
2017-08-16T07:27:37.618Z,1698.75
2017-08-16T07:28:37.616Z,1839.38
2017-08-16T07:29:37.618Z,1957.50
2017-08-16T07:30:37.626Z,1980.00
2017-08-16T07:31:37.629Z,2025.00
2017-08-16T07:32:37.631Z,2058.75
2017-08-16T07:33:37.638Z,2092.50
2017-08-16T07:34:37.640Z,2092.50
2017-08-16T07:35:37.648Z,2109.38
2017-08-16T07:36:37.659Z,2019.38
2017-08-16T07:37:37.662Z,1985.63
2017-08-16T07:38:37.670Z,1704.38
2017-08-16T07:39:37.676Z,1766.25
2017-08-16T07:40:37.683Z,1833.75
2017-08-16T07:41:37.689Z,1811.25
2017-08-16T07:42:37.699Z,1383.75
2017-08-16T07:43:37.704Z,1338.75
2017-08-16T07:44:37.710Z,1507.50
2017-08-16T07:45:37.718Z,1406.25
2017-08-16T07:46:37.722Z,1023.75
2017-08-16T07:47:37.820Z,990.00
2017-08-16T07:48:37.744Z,978.75
2017-08-16T07:49:37.750Z,933.75
2017-08-16T07:50:37.763Z,860.63
2017-08-16T07:51:37.768Z,798.75
2017-08-16T07:52:37.799Z,697.50
2017-08-16T07:53:37.781Z,618.75
2017-08-16T07:54:37.788Z,579.38
2017-08-16T07:55:37.797Z,568.13
2017-08-16T07:56:37.802Z,551.25
2017-08-16T07:57:37.810Z,556.88
2017-08-16T07:58:37.820Z,579.38
2017-08-16T07:59:37.826Z,646.88
2017-08-16T08:00:37.835Z,1361.25
2017-08-16T08:01:37.840Z,1395.00
2017-08-16T08:02:37.848Z,860.63
2017-08-16T08:03:37.853Z,973.13
2017-08-16T08:04:37.862Z,1366.88
2017-08-16T08:05:37.871Z,1327.50
2017-08-16T08:06:37.868Z,1456.88
2017-08-16T08:07:37.876Z,1378.13
2017-08-16T08:08:37.877Z,1271.25
2017-08-16T08:09:37.880Z,1164.38
2017-08-16T08:10:37.888Z,1220.63
2017-08-16T08:11:37.893Z,1141.88
2017-08-16T08:12:37.900Z,1108.13
2017-08-16T08:13:37.903Z,1468.13
2017-08-16T08:14:37.909Z,2705.63
2017-08-16T08:15:37.913Z,3099.38
2017-08-16T08:16:37.921Z,3611.25
2017-08-16T08:17:37.928Z,3296.25
2017-08-16T08:18:37.932Z,3397.50
2017-08-16T08:19:37.941Z,3965.63
2017-08-16T08:20:37.946Z,4140.00
2017-08-16T08:21:37.950Z,4303.13
2017-08-16T08:22:37.959Z,3881.25
2017-08-16T08:23:37.964Z,3611.25
2017-08-16T08:24:38.052Z,3228.75
2017-08-16T08:25:37.976Z,2261.25
2017-08-16T08:26:37.983Z,1535.63
2017-08-16T08:27:37.993Z,1192.50
2017-08-16T08:28:37.998Z,978.75
2017-08-16T08:29:38.009Z,945.00
2017-08-16T08:30:38.016Z,961.88
2017-08-16T08:31:38.028Z,916.88
2017-08-16T08:32:38.042Z,1001.25
2017-08-16T08:33:38.053Z,2891.25
2017-08-16T08:34:38.059Z,3088.13
2017-08-16T08:35:38.065Z,3470.63
2017-08-16T08:36:38.075Z,3650.63
2017-08-16T08:37:38.088Z,3504.38
2017-08-16T08:38:38.092Z,3217.50
2017-08-16T08:39:38.105Z,3031.88
2017-08-16T08:40:38.110Z,3442.50
2017-08-16T08:41:38.119Z,3318.75
2017-08-16T08:42:38.131Z,2975.63
2017-08-16T08:43:38.140Z,1102.50
2017-08-16T08:44:38.151Z,1035.00
2017-08-16T08:45:38.161Z,1085.63
2017-08-16T08:46:38.174Z,2126.25
2017-08-16T08:47:38.183Z,1321.88
2017-08-16T08:48:38.197Z,1186.88
2017-08-16T08:49:38.209Z,1181.25
2017-08-16T08:50:38.220Z,1170.00
2017-08-16T08:51:38.235Z,1226.25
2017-08-16T08:52:38.242Z,2469.38
2017-08-16T08:53:38.247Z,2193.75
2017-08-16T08:54:38.262Z,3144.38
2017-08-16T08:55:38.269Z,3476.25
2017-08-16T08:56:38.283Z,3470.63
2017-08-16T08:57:38.294Z,3526.88
2017-08-16T08:58:38.303Z,3414.38
2017-08-16T08:59:38.316Z,3459.38
2017-08-16T09:00:38.324Z,3465.00
2017-08-16T09:01:38.338Z,3611.25
2017-08-16T09:02:38.347Z,3622.50
2017-08-16T09:03:38.362Z,3808.13
2017-08-16T09:04:38.367Z,3892.50
2017-08-16T09:05:38.377Z,3931.88
2017-08-16T09:06:38.393Z,3881.25
2017-08-16T09:07:38.403Z,3684.38
2017-08-16T09:08:38.417Z,3555.00
2017-08-16T09:09:38.433Z,3470.63
2017-08-16T09:10:38.447Z,3588.75
2017-08-16T09:11:38.461Z,3616.88
2017-08-16T09:12:38.479Z,3020.63
2017-08-16T09:13:38.491Z,2266.88
2017-08-16T09:14:38.507Z,3391.88
2017-08-16T09:15:38.520Z,1411.88
2017-08-16T09:16:38.536Z,1260.00
2017-08-16T09:17:38.549Z,990.00
2017-08-16T09:18:38.565Z,810.00
2017-08-16T09:19:38.580Z,787.50
2017-08-16T09:20:38.588Z,855.00
2017-08-16T09:21:38.609Z,950.63
2017-08-16T09:22:38.617Z,1001.25
2017-08-16T09:23:38.634Z,1035.00
2017-08-16T09:24:38.647Z,1102.50
2017-08-16T09:25:38.659Z,1198.13
2017-08-16T09:26:38.674Z,1327.50
2017-08-16T09:27:38.685Z,1563.75
2017-08-16T09:28:38.700Z,2306.25
2017-08-16T09:29:38.714Z,3065.63
2017-08-16T09:30:38.724Z,3088.13
2017-08-16T09:31:38.739Z,3043.13
2017-08-16T09:32:38.748Z,2885.63
2017-08-16T09:33:38.762Z,2705.63
2017-08-16T09:34:38.772Z,2598.75
2017-08-16T09:35:38.787Z,2542.50
2017-08-16T09:36:38.794Z,1462.50
2017-08-16T09:37:38.804Z,1462.50
2017-08-16T09:38:38.819Z,1243.13
2017-08-16T09:39:38.829Z,1125.00
2017-08-16T09:40:38.840Z,1102.50
2017-08-16T09:41:38.856Z,1276.88
2017-08-16T09:42:38.869Z,1833.75
2017-08-16T09:43:38.883Z,2767.50
2017-08-16T09:44:38.959Z,2863.13
2017-08-16T09:45:38.909Z,3093.75
2017-08-16T09:46:38.923Z,3189.38
2017-08-16T09:47:38.934Z,3223.13
2017-08-16T09:48:38.947Z,2486.25
2017-08-16T09:49:38.958Z,2773.13
2017-08-16T09:50:38.972Z,3166.88
2017-08-16T09:51:38.987Z,3161.25
2017-08-16T09:52:38.992Z,2981.25
2017-08-16T09:53:39.007Z,2891.25
2017-08-16T09:54:39.020Z,3228.75
2017-08-16T09:55:39.035Z,3150.00
2017-08-16T09:56:39.053Z,3251.25
2017-08-16T09:57:39.063Z,3031.88
2017-08-16T09:58:39.080Z,2919.38
2017-08-16T09:59:39.093Z,2936.25
2017-08-16T10:00:39.100Z,2778.75
2017-08-16T10:01:39.117Z,2767.50
2017-08-16T10:02:39.130Z,2941.88
2017-08-16T10:03:39.159Z,3110.63
2017-08-16T10:04:39.155Z,2643.75
2017-08-16T10:05:39.171Z,2565.00
2017-08-16T10:06:39.184Z,2621.25
2017-08-16T10:07:39.202Z,2446.88
2017-08-16T10:08:39.217Z,2497.50
2017-08-16T10:09:39.230Z,2711.25
2017-08-16T10:10:39.247Z,2705.63
2017-08-16T10:11:39.259Z,2581.88
2017-08-16T10:12:39.273Z,2261.25
2017-08-16T10:13:39.290Z,2193.75
2017-08-16T10:14:39.304Z,2193.75
2017-08-16T10:15:39.319Z,2356.88
2017-08-16T10:16:39.331Z,2323.13
2017-08-16T10:17:39.343Z,2430.00
2017-08-16T10:18:39.360Z,2300.63
2017-08-16T10:19:39.373Z,2497.50
2017-08-16T10:20:39.390Z,2401.88
2017-08-16T10:21:39.403Z,2385.00
2017-08-16T10:22:39.424Z,2385.00
2017-08-16T10:23:39.433Z,2463.75
2017-08-16T10:24:39.453Z,2435.63
2017-08-16T10:25:39.470Z,2030.63
2017-08-16T10:26:39.482Z,2030.63
2017-08-16T10:27:39.501Z,2238.75
2017-08-16T10:28:39.514Z,2266.88
2017-08-16T10:29:39.529Z,2745.00
2017-08-16T10:30:39.549Z,4612.50
2017-08-16T10:31:39.559Z,6058.13
2017-08-16T10:32:39.569Z,5619.38
2017-08-16T10:33:39.590Z,4393.13
2017-08-16T10:34:39.600Z,3684.38
2017-08-16T10:35:39.618Z,4365.00
2017-08-16T10:36:39.630Z,4117.50
2017-08-16T10:37:39.646Z,3796.88
2017-08-16T10:38:39.661Z,3768.75
2017-08-16T10:39:39.678Z,4263.75
2017-08-16T10:40:39.695Z,4443.75
2017-08-16T10:41:39.710Z,4421.25
2017-08-16T10:42:39.726Z,4927.50
2017-08-16T10:43:39.739Z,4882.50
2017-08-16T10:44:39.757Z,4955.63
2017-08-16T10:45:39.770Z,4455.00
2017-08-16T10:46:39.784Z,3898.13
2017-08-16T10:47:39.801Z,3459.38
2017-08-16T10:48:39.810Z,4027.50
2017-08-16T10:49:39.825Z,3712.50
2017-08-16T10:50:39.841Z,4308.75
2017-08-16T10:51:39.860Z,922.50
2017-08-16T10:52:39.872Z,933.75
2017-08-16T10:53:39.885Z,4921.88
2017-08-16T10:54:39.901Z,5124.38
2017-08-16T10:55:39.914Z,5141.25
2017-08-16T10:56:39.934Z,4348.13
2017-08-16T10:57:39.950Z,4747.50
2017-08-16T10:58:39.962Z,922.50
2017-08-16T10:59:39.982Z,1293.75
2017-08-16T11:00:40.069Z,4561.88
2017-08-16T11:01:40.008Z,4185.00
2017-08-16T11:02:40.021Z,1282.50
2017-08-16T11:03:40.038Z,3976.88
2017-08-16T11:04:40.047Z,2598.75
2017-08-16T11:05:40.058Z,3161.25
2017-08-16T11:06:40.076Z,663.75
2017-08-16T11:07:40.092Z,562.50
2017-08-16T11:08:40.101Z,562.50
2017-08-16T11:09:40.114Z,540.00
2017-08-16T11:10:40.140Z,534.38
2017-08-16T11:11:40.141Z,568.13
2017-08-16T11:12:40.157Z,551.25
2017-08-16T11:13:40.171Z,601.88
2017-08-16T11:14:40.183Z,680.63
2017-08-16T11:15:40.198Z,731.25
2017-08-16T11:16:40.209Z,691.88
2017-08-16T11:17:40.219Z,686.25
2017-08-16T11:18:40.231Z,686.25
2017-08-16T11:19:40.241Z,663.75
2017-08-16T11:20:40.247Z,646.88
2017-08-16T11:21:40.260Z,680.63
2017-08-16T11:22:40.268Z,793.13
2017-08-16T11:23:40.280Z,1507.50
2017-08-16T11:24:40.287Z,1445.63
2017-08-16T11:25:40.299Z,1091.25
2017-08-16T11:26:40.306Z,1288.13
2017-08-16T11:27:40.319Z,1091.25
2017-08-16T11:28:40.329Z,1040.63
2017-08-16T11:29:40.334Z,1029.38
2017-08-16T11:30:40.345Z,1080.00
2017-08-16T11:31:40.351Z,939.38
2017-08-16T11:32:40.358Z,821.25
2017-08-16T11:33:40.366Z,736.88
2017-08-16T11:34:40.373Z,759.38
2017-08-16T11:35:40.381Z,832.50
2017-08-16T11:36:40.382Z,855.00
2017-08-16T11:37:40.389Z,1018.13
2017-08-16T11:38:40.396Z,939.38
2017-08-16T11:39:40.400Z,1029.38
2017-08-16T11:40:40.408Z,1006.88
2017-08-16T11:41:40.412Z,911.25
2017-08-16T11:42:40.420Z,832.50
2017-08-16T11:43:40.424Z,776.25
2017-08-16T11:44:40.434Z,675.00
2017-08-16T11:45:40.444Z,680.63
2017-08-16T11:46:40.446Z,720.00
2017-08-16T11:47:40.452Z,675.00
2017-08-16T11:48:40.457Z,736.88
2017-08-16T11:49:40.460Z,866.25
2017-08-16T11:50:40.468Z,990.00
2017-08-16T11:51:40.471Z,900.00
2017-08-16T11:52:40.472Z,928.13
2017-08-16T11:53:40.479Z,956.25
2017-08-16T11:54:40.483Z,832.50
2017-08-16T11:55:40.489Z,821.25
2017-08-16T11:56:40.491Z,826.88
2017-08-16T11:57:40.497Z,781.88
2017-08-16T11:58:40.501Z,753.75
2017-08-16T11:59:40.514Z,765.00
2017-08-16T12:00:40.516Z,714.38
2017-08-16T12:01:40.519Z,686.25
2017-08-16T12:02:40.525Z,618.75
2017-08-16T12:03:40.530Z,573.75
2017-08-16T12:04:40.528Z,551.25
2017-08-16T12:05:40.534Z,540.00
2017-08-16T12:06:40.538Z,517.50
2017-08-16T12:07:40.545Z,528.75
2017-08-16T12:08:40.553Z,523.13
2017-08-16T12:09:40.555Z,511.88
2017-08-16T12:10:40.561Z,506.25
2017-08-16T12:11:40.564Z,540.00
2017-08-16T12:12:40.569Z,573.75
2017-08-16T12:13:40.575Z,596.25
2017-08-16T12:14:40.579Z,607.50
2017-08-16T12:15:40.582Z,624.38
2017-08-16T12:16:40.581Z,652.50
2017-08-16T12:17:40.587Z,652.50
2017-08-16T12:18:40.589Z,725.63
2017-08-16T12:19:40.597Z,708.75
2017-08-16T12:20:40.600Z,669.38
2017-08-16T12:21:40.602Z,765.00
2017-08-16T12:22:40.608Z,781.88
2017-08-16T12:23:40.609Z,697.50
2017-08-16T12:24:40.618Z,697.50
2017-08-16T12:25:40.625Z,714.38
2017-08-16T12:26:40.627Z,736.88
2017-08-16T12:27:40.632Z,821.25
2017-08-16T12:28:40.634Z,973.13
2017-08-16T12:29:40.641Z,978.75
2017-08-16T12:30:40.643Z,855.00
2017-08-16T12:31:40.649Z,838.13
2017-08-16T12:32:40.650Z,759.38
2017-08-16T12:33:40.655Z,742.50
2017-08-16T12:34:40.658Z,753.75
2017-08-16T12:35:40.660Z,697.50
2017-08-16T12:36:40.731Z,731.25
2017-08-16T12:37:40.689Z,720.00
2017-08-16T12:38:40.889Z,776.25
2017-08-16T12:39:40.678Z,787.50
2017-08-16T12:40:40.686Z,714.38